^^
Station Historical Data
Daily Summary for April 6, 2017 Units:  Both    English   Metric
« Previous Day
Next Day »
Daily Weekly Monthly Yearly Custom
  High: Low: Average:
Temperature: 86.4 °F /  30.2 °C 57.0 °F /  13.9 °C 70.1 °F /  21.2 °C
Dew Point: 47.8 °F /  8.8 °C 37.6 °F /  3.1 °C 43.3 °F /  6.3 °C
Humidity: 68% 18% 41%
Wind Speed: 6.9mph /  11.1km/h - 0.6mph /  1km/h
Wind Gust: 10.0mph /  16.1km/h - -
Wind- - SSE
Pressure: 30.30 in /  1026 hPa 30.14 in /  1020.5 hPa -
Precipitation: 0.00 in /  0 mm    
Historical Graphs
 
 
Tabular Data for April 6, 2017
Time Temperature Dew Point Pressure Wind Wind Speed Wind Gust Humidity Rainfall Rate (Hourly) solar Conditions
00:05 64.8 °F /  18.2 °C 46.2 °F /  7.9 °C 30.29in /  1025.6hPa Calm   2.0mph /  3.2km/h 51% 0.00in /  0mm 0.0 W/m2
00:11 64.8 °F /  18.2 °C 46.2 °F /  7.9 °C 30.29in /  1025.6hPa Calm   2.0mph /  3.2km/h 51% 0.00in /  0mm 0.0 W/m2
00:17 64.6 °F /  18.1 °C 46.0 °F /  7.8 °C 30.29in /  1025.6hPa Calm   2.0mph /  3.2km/h 51% 0.00in /  0mm 0.0 W/m2
00:23 64.4 °F /  18 °C 45.9 °F /  7.7 °C 30.29in /  1025.6hPa Calm   2.0mph /  3.2km/h 51% 0.00in /  0mm 0.0 W/m2
00:29 64.2 °F /  17.9 °C 46.2 °F /  7.9 °C 30.29in /  1025.6hPa Calm   3.0mph /  4.8km/h 52% 0.00in /  0mm 0.0 W/m2
00:35 64.0 °F /  17.8 °C 46.0 °F /  7.8 °C 30.29in /  1025.6hPa East 0.9mph /  1.4km/h 1.0mph /  1.6km/h 52% 0.00in /  0mm 0.0 W/m2
00:41 63.9 °F /  17.7 °C 46.4 °F /  8 °C 30.29in /  1025.6hPa Calm   1.0mph /  1.6km/h 53% 0.00in /  0mm 0.0 W/m2
00:47 63.7 °F /  17.6 °C 46.2 °F /  7.9 °C 30.29in /  1025.6hPa Calm   2.0mph /  3.2km/h 53% 0.00in /  0mm 0.0 W/m2
00:53 63.7 °F /  17.6 °C 46.2 °F /  7.9 °C 30.29in /  1025.6hPa Calm   2.0mph /  3.2km/h 53% 0.00in /  0mm 0.0 W/m2
00:59 63.5 °F /  17.5 °C 46.0 °F /  7.8 °C 30.28in /  1025.3hPa Calm   2.0mph /  3.2km/h 53% 0.00in /  0mm 0.0 W/m2
01:05 63.3 °F /  17.4 °C 46.4 °F /  8 °C 30.28in /  1025.3hPa Calm   2.0mph /  3.2km/h 54% 0.00in /  0mm 0.0 W/m2
01:11 63.3 °F /  17.4 °C 46.4 °F /  8 °C 30.28in /  1025.3hPa ENE 0.9mph /  1.4km/h 2.0mph /  3.2km/h 54% 0.00in /  0mm 0.0 W/m2
01:17 63.3 °F /  17.4 °C 46.4 °F /  8 °C 30.28in /  1025.3hPa ENE 0.9mph /  1.4km/h 2.0mph /  3.2km/h 54% 0.00in /  0mm 0.0 W/m2
01:23 63.0 °F /  17.2 °C 46.6 °F /  8.1 °C 30.28in /  1025.3hPa NE 0.9mph /  1.4km/h 1.0mph /  1.6km/h 55% 0.00in /  0mm 0.0 W/m2
01:29 62.8 °F /  17.1 °C 46.4 °F /  8 °C 30.27in /  1024.9hPa Calm   2.0mph /  3.2km/h 55% 0.00in /  0mm 0.0 W/m2
01:35 62.4 °F /  16.9 °C 46.6 °F /  8.1 °C 30.27in /  1024.9hPa NE 2.0mph /  3.2km/h 2.0mph /  3.2km/h 56% 0.00in /  0mm 0.0 W/m2
01:41 62.2 °F /  16.8 °C 46.4 °F /  8 °C 30.27in /  1024.9hPa Calm   1.0mph /  1.6km/h 56% 0.00in /  0mm 0.0 W/m2
01:47 62.1 °F /  16.7 °C 46.6 °F /  8.1 °C 30.27in /  1024.9hPa Calm   2.0mph /  3.2km/h 57% 0.00in /  0mm 0.0 W/m2
01:53 61.9 °F /  16.6 °C 46.4 °F /  8 °C 30.27in /  1024.9hPa Calm   1.0mph /  1.6km/h 57% 0.00in /  0mm 0.0 W/m2
01:59 61.5 °F /  16.4 °C 46.6 °F /  8.1 °C 30.27in /  1024.9hPa Calm     58% 0.00in /  0mm 0.0 W/m2
02:05 61.3 °F /  16.3 °C 46.4 °F /  8 °C 30.26in /  1024.6hPa Calm     58% 0.00in /  0mm 0.0 W/m2
02:11 61.2 °F /  16.2 °C 46.2 °F /  7.9 °C 30.26in /  1024.6hPa Calm   1.0mph /  1.6km/h 58% 0.00in /  0mm 0.0 W/m2
02:17 60.8 °F /  16 °C 46.4 °F /  8 °C 30.26in /  1024.6hPa Calm     59% 0.00in /  0mm 0.0 W/m2
02:23 60.6 °F /  15.9 °C 46.6 °F /  8.1 °C 30.26in /  1024.6hPa Calm     60% 0.00in /  0mm 0.0 W/m2
02:29 60.4 °F /  15.8 °C 46.4 °F /  8 °C 30.26in /  1024.6hPa Calm     60% 0.00in /  0mm 0.0 W/m2
02:35 60.3 °F /  15.7 °C 46.4 °F /  8 °C 30.26in /  1024.6hPa Calm   4.0mph /  6.4km/h 60% 0.00in /  0mm 0.0 W/m2
02:41 60.1 °F /  15.6 °C 46.2 °F /  7.9 °C 30.26in /  1024.6hPa Calm   2.0mph /  3.2km/h 60% 0.00in /  0mm 0.0 W/m2
02:47 60.1 °F /  15.6 °C 46.6 °F /  8.1 °C 30.25in /  1024.3hPa East 2.0mph /  3.2km/h 3.0mph /  4.8km/h 61% 0.00in /  0mm 0.0 W/m2
02:53 60.1 °F /  15.6 °C 46.2 °F /  7.9 °C 30.25in /  1024.3hPa Calm   2.0mph /  3.2km/h 60% 0.00in /  0mm 0.0 W/m2
02:59 60.1 °F /  15.6 °C 46.2 °F /  7.9 °C 30.25in /  1024.3hPa Calm   3.0mph /  4.8km/h 60% 0.00in /  0mm 0.0 W/m2
03:05 60.1 °F /  15.6 °C 46.2 °F /  7.9 °C 30.25in /  1024.3hPa ESE 0.9mph /  1.4km/h 4.0mph /  6.4km/h 60% 0.00in /  0mm 0.0 W/m2
03:11 60.3 °F /  15.7 °C 46.4 °F /  8 °C 30.25in /  1024.3hPa ENE 2.0mph /  3.2km/h 3.0mph /  4.8km/h 60% 0.00in /  0mm 0.0 W/m2
03:17 60.3 °F /  15.7 °C 46.4 °F /  8 °C 30.25in /  1024.3hPa Calm   4.0mph /  6.4km/h 60% 0.00in /  0mm 0.0 W/m2
03:23 60.3 °F /  15.7 °C 46.4 °F /  8 °C 30.25in /  1024.3hPa East 2.0mph /  3.2km/h 3.0mph /  4.8km/h 60% 0.00in /  0mm 0.0 W/m2
03:29 60.1 °F /  15.6 °C 46.2 °F /  7.9 °C 30.25in /  1024.3hPa East 2.0mph /  3.2km/h 3.0mph /  4.8km/h 60% 0.00in /  0mm 0.0 W/m2
03:35 60.1 °F /  15.6 °C 46.2 °F /  7.9 °C 30.25in /  1024.3hPa Calm   1.0mph /  1.6km/h 60% 0.00in /  0mm 0.0 W/m2
03:41 59.9 °F /  15.5 °C 46.0 °F /  7.8 °C 30.25in /  1024.3hPa Calm   2.0mph /  3.2km/h 60% 0.00in /  0mm 0.0 W/m2
03:47 59.7 °F /  15.4 °C 45.9 °F /  7.7 °C 30.25in /  1024.3hPa Calm   2.0mph /  3.2km/h 60% 0.00in /  0mm 0.0 W/m2
03:53 59.7 °F /  15.4 °C 46.2 °F /  7.9 °C 30.25in /  1024.3hPa Calm     61% 0.00in /  0mm 0.0 W/m2
03:59 59.7 °F /  15.4 °C 46.2 °F /  7.9 °C 30.25in /  1024.3hPa Calm     61% 0.00in /  0mm 0.0 W/m2
04:05 59.5 °F /  15.3 °C 46.0 °F /  7.8 °C 30.25in /  1024.3hPa Calm     61% 0.00in /  0mm 0.0 W/m2
04:11 59.5 °F /  15.3 °C 46.0 °F /  7.8 °C 30.25in /  1024.3hPa Calm     61% 0.00in /  0mm 0.0 W/m2
04:17 59.4 °F /  15.2 °C 46.4 °F /  8 °C 30.25in /  1024.3hPa Calm     62% 0.00in /  0mm 0.0 W/m2
04:23 59.2 °F /  15.1 °C 46.6 °F /  8.1 °C 30.25in /  1024.3hPa Calm     63% 0.00in /  0mm 0.0 W/m2
04:29 58.8 °F /  14.9 °C 46.2 °F /  7.9 °C 30.25in /  1024.3hPa Calm     63% 0.00in /  0mm 0.0 W/m2
04:35 58.8 °F /  14.9 °C 46.6 °F /  8.1 °C 30.26in /  1024.6hPa Calm     64% 0.00in /  0mm 0.0 W/m2
04:41 58.5 °F /  14.7 °C 46.4 °F /  8 °C 30.26in /  1024.6hPa Calm   1.0mph /  1.6km/h 64% 0.00in /  0mm 0.0 W/m2
04:47 58.5 °F /  14.7 °C 46.4 °F /  8 °C 30.26in /  1024.6hPa NE 2.9mph /  4.7km/h 5.0mph /  8km/h 64% 0.00in /  0mm 0.0 W/m2
04:53 58.5 °F /  14.7 °C 46.4 °F /  8 °C 30.26in /  1024.6hPa Calm   3.0mph /  4.8km/h 64% 0.00in /  0mm 0.0 W/m2
04:59 58.5 °F /  14.7 °C 46.4 °F /  8 °C 30.26in /  1024.6hPa Calm   3.0mph /  4.8km/h 64% 0.00in /  0mm 0.0 W/m2
05:05 58.5 °F /  14.7 °C 46.8 °F /  8.2 °C 30.26in /  1024.6hPa ESE 2.0mph /  3.2km/h 4.0mph /  6.4km/h 65% 0.00in /  0mm 0.0 W/m2
05:11 58.3 °F /  14.6 °C 46.6 °F /  8.1 °C 30.26in /  1024.6hPa East 2.0mph /  3.2km/h 3.0mph /  4.8km/h 65% 0.00in /  0mm 0.0 W/m2
05:17 58.3 °F /  14.6 °C 46.6 °F /  8.1 °C 30.26in /  1024.6hPa Calm   2.0mph /  3.2km/h 65% 0.00in /  0mm 0.0 W/m2
05:23 57.9 °F /  14.4 °C 46.2 °F /  7.9 °C 30.27in /  1024.9hPa ENE 0.9mph /  1.4km/h 2.0mph /  3.2km/h 65% 0.00in /  0mm 0.0 W/m2
05:29 57.9 °F /  14.4 °C 46.6 °F /  8.1 °C 30.27in /  1024.9hPa Calm   1.0mph /  1.6km/h 66% 0.00in /  0mm 0.0 W/m2
05:35 57.7 °F /  14.3 °C 46.4 °F /  8 °C 30.27in /  1024.9hPa East 2.0mph /  3.2km/h 3.0mph /  4.8km/h 66% 0.00in /  0mm 0.0 W/m2
05:41 57.7 °F /  14.3 °C 46.4 °F /  8 °C 30.27in /  1024.9hPa Calm   2.0mph /  3.2km/h 66% 0.00in /  0mm 0.0 W/m2
05:47 57.6 °F /  14.2 °C 46.2 °F /  7.9 °C 30.27in /  1024.9hPa Calm   1.0mph /  1.6km/h 66% 0.00in /  0mm 0.0 W/m2
05:53 57.4 °F /  14.1 °C 46.6 °F /  8.1 °C 30.27in /  1024.9hPa SE 2.0mph /  3.2km/h 2.0mph /  3.2km/h 67% 0.00in /  0mm 0.0 W/m2
05:59 57.4 °F /  14.1 °C 46.6 °F /  8.1 °C 30.28in /  1025.3hPa Calm     67% 0.00in /  0mm 0.0 W/m2
06:05 57.4 °F /  14.1 °C 46.6 °F /  8.1 °C 30.28in /  1025.3hPa Calm     67% 0.00in /  0mm 5.0 W/m2
06:11 57.2 °F /  14 °C 46.4 °F /  8 °C 30.28in /  1025.3hPa Calm   1.0mph /  1.6km/h 67% 0.00in /  0mm 9.0 W/m2
06:17 57.0 °F /  13.9 °C 46.2 °F /  7.9 °C 30.28in /  1025.3hPa Calm   1.0mph /  1.6km/h 67% 0.00in /  0mm 12.0 W/m2
06:24 57.0 °F /  13.9 °C 46.6 °F /  8.1 °C 30.28in /  1025.3hPa Calm     68% 0.00in /  0mm 16.0 W/m2
06:29 57.0 °F /  13.9 °C 46.2 °F /  7.9 °C 30.28in /  1025.3hPa Calm     67% 0.00in /  0mm 21.0 W/m2
06:35 57.0 °F /  13.9 °C 46.2 °F /  7.9 °C 30.28in /  1025.3hPa Calm   1.0mph /  1.6km/h 67% 0.00in /  0mm 23.0 W/m2
06:41 57.2 °F /  14 °C 46.8 °F /  8.2 °C 30.28in /  1025.3hPa Calm     68% 0.00in /  0mm 26.0 W/m2
06:47 57.4 °F /  14.1 °C 46.6 °F /  8.1 °C 30.29in /  1025.6hPa Calm     67% 0.00in /  0mm 30.0 W/m2
06:53 57.6 °F /  14.2 °C 46.8 °F /  8.2 °C 30.29in /  1025.6hPa Calm     67% 0.00in /  0mm 32.0 W/m2
07:00 57.9 °F /  14.4 °C 46.6 °F /  8.1 °C 30.29in /  1025.6hPa Calm   1.0mph /  1.6km/h 66% 0.00in /  0mm 35.0 W/m2
07:06 58.3 °F /  14.6 °C 46.9 °F /  8.3 °C 30.29in /  1025.6hPa Calm   1.0mph /  1.6km/h 66% 0.00in /  0mm 37.0 W/m2
07:12 58.6 °F /  14.8 °C 47.3 °F /  8.5 °C 30.29in /  1025.6hPa Calm   1.0mph /  1.6km/h 66% 0.00in /  0mm 40.0 W/m2
07:18 59.2 °F /  15.1 °C 47.5 °F /  8.6 °C 30.29in /  1025.6hPa Calm   2.0mph /  3.2km/h 65% 0.00in /  0mm 42.0 W/m2
07:24 59.7 °F /  15.4 °C 47.5 °F /  8.6 °C 30.29in /  1025.6hPa Calm   2.0mph /  3.2km/h 64% 0.00in /  0mm 44.0 W/m2
07:30 60.4 °F /  15.8 °C 47.8 °F /  8.8 °C 30.29in /  1025.6hPa Calm   1.0mph /  1.6km/h 63% 0.00in /  0mm 46.0 W/m2
07:36 61.0 °F /  16.1 °C 47.5 °F /  8.6 °C 30.29in /  1025.6hPa Calm     61% 0.00in /  0mm 49.0 W/m2
07:42 61.5 °F /  16.4 °C 47.5 °F /  8.6 °C 30.29in /  1025.6hPa Calm     60% 0.00in /  0mm 53.0 W/m2
07:48 62.8 °F /  17.1 °C 43.9 °F /  6.6 °C 30.29in /  1025.6hPa Calm     50% 0.00in /  0mm 56.0 W/m2
07:54 63.9 °F /  17.7 °C 44.8 °F /  7.1 °C 30.30in /  1026hPa Calm     50% 0.00in /  0mm 58.0 W/m2
08:00 64.6 °F /  18.1 °C 45.0 °F /  7.2 °C 30.30in /  1026hPa Calm   1.0mph /  1.6km/h 49% 0.00in /  0mm 62.0 W/m2
08:06 65.7 °F /  18.7 °C 43.7 °F /  6.5 °C 30.29in /  1025.6hPa Calm   1.0mph /  1.6km/h 45% 0.00in /  0mm 69.0 W/m2
08:12 66.4 °F /  19.1 °C 43.9 °F /  6.6 °C 30.30in /  1026hPa Calm   1.0mph /  1.6km/h 44% 0.00in /  0mm 72.0 W/m2
08:18 66.9 °F /  19.4 °C 43.7 °F /  6.5 °C 30.29in /  1025.6hPa Calm     43% 0.00in /  0mm 69.0 W/m2
08:24 67.6 °F /  19.8 °C 43.2 °F /  6.2 °C 30.29in /  1025.6hPa Calm     41% 0.00in /  0mm 70.0 W/m2
08:30 68.4 °F /  20.2 °C 43.7 °F /  6.5 °C 30.29in /  1025.6hPa Calm   2.0mph /  3.2km/h 41% 0.00in /  0mm 76.0 W/m2
08:36 69.1 °F /  20.6 °C 42.4 °F /  5.8 °C 30.29in /  1025.6hPa WNW 0.9mph /  1.4km/h 1.0mph /  1.6km/h 38% 0.00in /  0mm 84.0 W/m2
08:42 69.6 °F /  20.9 °C 43.5 °F /  6.4 °C 30.29in /  1025.6hPa Calm   3.0mph /  4.8km/h 39% 0.00in /  0mm 534.0 W/m2
08:49 70.3 °F /  21.3 °C 43.5 °F /  6.4 °C 30.29in /  1025.6hPa Calm   3.0mph /  4.8km/h 38% 0.00in /  0mm 554.0 W/m2
08:55 71.4 °F /  21.9 °C 42.3 °F /  5.7 °C 30.29in /  1025.6hPa North 0.9mph /  1.4km/h 3.0mph /  4.8km/h 35% 0.00in /  0mm 573.0 W/m2
09:01 72.9 °F /  22.7 °C 44.4 °F /  6.9 °C 30.29in /  1025.6hPa WSW 2.9mph /  4.7km/h 5.0mph /  8km/h 36% 0.00in /  0mm 587.0 W/m2
09:07 73.2 °F /  22.9 °C 43.9 °F /  6.6 °C 30.29in /  1025.6hPa Calm   3.0mph /  4.8km/h 35% 0.00in /  0mm 603.0 W/m2
09:13 73.8 °F /  23.2 °C 43.7 °F /  6.5 °C 30.29in /  1025.6hPa NNE 0.9mph /  1.4km/h 2.0mph /  3.2km/h 34% 0.00in /  0mm 617.0 W/m2
09:19 74.8 °F /  23.8 °C 43.0 °F /  6.1 °C 30.28in /  1025.3hPa Calm   2.0mph /  3.2km/h 32% 0.00in /  0mm 635.0 W/m2
09:25 75.6 °F /  24.2 °C 45.1 °F /  7.3 °C 30.28in /  1025.3hPa SSW 0.9mph /  1.4km/h 1.0mph /  1.6km/h 34% 0.00in /  0mm 657.0 W/m2
09:31 75.7 °F /  24.3 °C 43.7 °F /  6.5 °C 30.28in /  1025.3hPa Calm   3.0mph /  4.8km/h 32% 0.00in /  0mm 661.0 W/m2
09:37 75.9 °F /  24.4 °C 43.9 °F /  6.6 °C 30.29in /  1025.6hPa West 0.9mph /  1.4km/h 3.0mph /  4.8km/h 32% 0.00in /  0mm 691.0 W/m2
09:43 76.5 °F /  24.7 °C 45.1 °F /  7.3 °C 30.28in /  1025.3hPa Calm   2.0mph /  3.2km/h 33% 0.00in /  0mm 705.0 W/m2
09:49 77.0 °F /  25 °C 45.0 °F /  7.2 °C 30.28in /  1025.3hPa Calm   2.0mph /  3.2km/h 32% 0.00in /  0mm 729.0 W/m2
09:55 77.5 °F /  25.3 °C 45.3 °F /  7.4 °C 30.28in /  1025.3hPa Calm   4.0mph /  6.4km/h 32% 0.00in /  0mm 733.0 W/m2
10:01 77.7 °F /  25.4 °C 43.9 °F /  6.6 °C 30.28in /  1025.3hPa Calm   4.0mph /  6.4km/h 30% 0.00in /  0mm 745.0 W/m2
10:07 77.5 °F /  25.3 °C 45.3 °F /  7.4 °C 30.28in /  1025.3hPa Calm   3.0mph /  4.8km/h 32% 0.00in /  0mm 763.0 W/m2
10:13 77.7 °F /  25.4 °C 44.6 °F /  7 °C 30.27in /  1024.9hPa Calm   3.0mph /  4.8km/h 31% 0.00in /  0mm 770.0 W/m2
10:19 78.3 °F /  25.7 °C 45.1 °F /  7.3 °C 30.27in /  1024.9hPa West 0.9mph /  1.4km/h 6.0mph /  9.7km/h 31% 0.00in /  0mm 786.0 W/m2
10:25 78.4 °F /  25.8 °C 45.3 °F /  7.4 °C 30.27in /  1024.9hPa NNW 4.9mph /  7.9km/h 5.0mph /  8km/h 31% 0.00in /  0mm 795.0 W/m2
10:31 79.3 °F /  26.3 °C 45.1 °F /  7.3 °C 30.27in /  1024.9hPa Calm   1.0mph /  1.6km/h 30% 0.00in /  0mm 809.0 W/m2
10:37 79.7 °F /  26.5 °C 44.6 °F /  7 °C 30.26in /  1024.6hPa Calm   2.0mph /  3.2km/h 29% 0.00in /  0mm 817.0 W/m2
10:44 80.1 °F /  26.7 °C 45.0 °F /  7.2 °C 30.26in /  1024.6hPa North 0.9mph /  1.4km/h 3.0mph /  4.8km/h 29% 0.00in /  0mm 835.0 W/m2
10:50 80.1 °F /  26.7 °C 45.0 °F /  7.2 °C 30.26in /  1024.6hPa West 2.0mph /  3.2km/h 3.0mph /  4.8km/h 29% 0.00in /  0mm 835.0 W/m2
10:56 79.7 °F /  26.5 °C 45.5 °F /  7.5 °C 30.26in /  1024.6hPa WSW 2.0mph /  3.2km/h 4.0mph /  6.4km/h 30% 0.00in /  0mm 837.0 W/m2
11:00 79.5 °F /  26.4 °C 45.3 °F /  7.4 °C 30.25in /  1024.3hPa North 2.9mph /  4.7km/h 3.0mph /  4.8km/h 30% 0.00in /  0mm 844.0 W/m2
11:06 79.5 °F /  26.4 °C 45.3 °F /  7.4 °C 30.25in /  1024.3hPa SSE 4.0mph /  6.4km/h 8.0mph /  12.9km/h 30% 0.00in /  0mm 853.0 W/m2
11:12 79.9 °F /  26.6 °C 44.8 °F /  7.1 °C 30.24in /  1023.9hPa Calm   5.0mph /  8km/h 29% 0.00in /  0mm 867.0 W/m2
11:18 80.4 °F /  26.9 °C 46.2 °F /  7.9 °C 30.24in /  1023.9hPa NNW 0.9mph /  1.4km/h 2.0mph /  3.2km/h 30% 0.00in /  0mm 870.0 W/m2
11:25 81.1 °F /  27.3 °C 45.0 °F /  7.2 °C 30.23in /  1023.6hPa SW 2.0mph /  3.2km/h 8.0mph /  12.9km/h 28% 0.00in /  0mm 877.0 W/m2
11:31 81.1 °F /  27.3 °C 45.9 °F /  7.7 °C 30.23in /  1023.6hPa North 2.0mph /  3.2km/h 5.0mph /  8km/h 29% 0.00in /  0mm 909.0 W/m2
11:35 81.1 °F /  27.3 °C 45.0 °F /  7.2 °C 30.23in /  1023.6hPa Calm   3.0mph /  4.8km/h 28% 0.00in /  0mm 905.0 W/m2
11:41 81.1 °F /  27.3 °C 45.0 °F /  7.2 °C 30.23in /  1023.6hPa Calm   1.0mph /  1.6km/h 28% 0.00in /  0mm 925.0 W/m2
11:47 81.1 °F /  27.3 °C 45.0 °F /  7.2 °C 30.23in /  1023.6hPa WSW 6.9mph /  11.1km/h 8.0mph /  12.9km/h 28% 0.00in /  0mm 914.0 W/m2
11:53 80.6 °F /  27 °C 45.3 °F /  7.4 °C 30.22in /  1023.2hPa WSW 2.0mph /  3.2km/h 2.0mph /  3.2km/h 29% 0.00in /  0mm 232.0 W/m2
11:59 80.8 °F /  27.1 °C 45.5 °F /  7.5 °C 30.22in /  1023.2hPa Calm   5.0mph /  8km/h 29% 0.00in /  0mm 232.0 W/m2
12:05 81.3 °F /  27.4 °C 45.1 °F /  7.3 °C 30.21in /  1022.9hPa Calm   8.0mph /  12.9km/h 28% 0.00in /  0mm 974.0 W/m2
12:11 82.2 °F /  27.9 °C 46.8 °F /  8.2 °C 30.21in /  1022.9hPa West 2.0mph /  3.2km/h 5.0mph /  8km/h 29% 0.00in /  0mm 965.0 W/m2
12:17 82.9 °F /  28.3 °C 45.5 °F /  7.5 °C 30.21in /  1022.9hPa NW 2.0mph /  3.2km/h 3.0mph /  4.8km/h 27% 0.00in /  0mm 1020.0 W/m2
12:23 83.7 °F /  28.7 °C 46.2 °F /  7.9 °C 30.20in /  1022.6hPa NNW 4.0mph /  6.4km/h 8.0mph /  12.9km/h 27% 0.00in /  0mm 1032.0 W/m2
12:30 84.6 °F /  29.2 °C 45.9 °F /  7.7 °C 30.20in /  1022.6hPa WNW 2.0mph /  3.2km/h 6.0mph /  9.7km/h 26% 0.00in /  0mm 1000.0 W/m2
12:36 85.3 °F /  29.6 °C 45.5 °F /  7.5 °C 30.19in /  1022.2hPa NNE 0.9mph /  1.4km/h 2.0mph /  3.2km/h 25% 0.00in /  0mm 953.0 W/m2
12:42 85.8 °F /  29.9 °C 45.9 °F /  7.7 °C 30.19in /  1022.2hPa ENE 0.9mph /  1.4km/h 6.0mph /  9.7km/h 25% 0.00in /  0mm 1004.0 W/m2
12:48 85.8 °F /  29.9 °C 44.8 °F /  7.1 °C 30.18in /  1021.9hPa North 6.0mph /  9.7km/h 7.0mph /  11.3km/h 24% 0.00in /  0mm 1034.0 W/m2
12:54 85.3 °F /  29.6 °C 45.5 °F /  7.5 °C 30.19in /  1022.2hPa East 4.0mph /  6.4km/h 5.0mph /  8km/h 25% 0.00in /  0mm 1034.0 W/m2
13:00 84.6 °F /  29.2 °C 45.9 °F /  7.7 °C 30.19in /  1022.2hPa SW 4.9mph /  7.9km/h 10.0mph /  16.1km/h 26% 0.00in /  0mm 322.0 W/m2
13:06 83.1 °F /  28.4 °C 44.6 °F /  7 °C 30.19in /  1022.2hPa Calm   8.0mph /  12.9km/h 26% 0.00in /  0mm 232.0 W/m2
13:12 81.9 °F /  27.7 °C 44.6 °F /  7 °C 30.18in /  1021.9hPa Calm   2.0mph /  3.2km/h 27% 0.00in /  0mm 230.0 W/m2
13:18 81.0 °F /  27.2 °C 43.9 °F /  6.6 °C 30.18in /  1021.9hPa NNE 0.9mph /  1.4km/h 1.0mph /  1.6km/h 27% 0.00in /  0mm 218.0 W/m2
13:24 80.8 °F /  27.1 °C 44.6 °F /  7 °C 30.18in /  1021.9hPa Calm   3.0mph /  4.8km/h 28% 0.00in /  0mm 207.0 W/m2
13:30 80.2 °F /  26.8 °C 44.2 °F /  6.8 °C 30.18in /  1021.9hPa Calm   2.0mph /  3.2km/h 28% 0.00in /  0mm 179.0 W/m2
13:36 79.9 °F /  26.6 °C 44.8 °F /  7.1 °C 30.17in /  1021.6hPa Calm   4.0mph /  6.4km/h 29% 0.00in /  0mm 179.0 W/m2
13:42 79.5 °F /  26.4 °C 44.4 °F /  6.9 °C 30.17in /  1021.6hPa Calm   4.0mph /  6.4km/h 29% 0.00in /  0mm 183.0 W/m2
13:48 79.5 °F /  26.4 °C 44.4 °F /  6.9 °C 30.17in /  1021.6hPa Calm   2.0mph /  3.2km/h 29% 0.00in /  0mm 165.0 W/m2
13:55 79.3 °F /  26.3 °C 43.3 °F /  6.3 °C 30.16in /  1021.2hPa West 2.0mph /  3.2km/h 3.0mph /  4.8km/h 28% 0.00in /  0mm 204.0 W/m2
14:01 79.7 °F /  26.5 °C 42.8 °F /  6 °C 30.16in /  1021.2hPa Calm   1.0mph /  1.6km/h 27% 0.00in /  0mm 807.0 W/m2
14:07 80.4 °F /  26.9 °C 43.3 °F /  6.3 °C 30.16in /  1021.2hPa Calm   3.0mph /  4.8km/h 27% 0.00in /  0mm 779.0 W/m2
14:13 81.1 °F /  27.3 °C 43.0 °F /  6.1 °C 30.16in /  1021.2hPa SSW 2.9mph /  4.7km/h 5.0mph /  8km/h 26% 0.00in /  0mm 752.0 W/m2
14:19 81.1 °F /  27.3 °C 41.0 °F /  5 °C 30.16in /  1021.2hPa SSW 0.9mph /  1.4km/h 2.0mph /  3.2km/h 24% 0.00in /  0mm 160.0 W/m2
14:25 81.7 °F /  27.6 °C 43.5 °F /  6.4 °C 30.16in /  1021.2hPa Calm   1.0mph /  1.6km/h 26% 0.00in /  0mm 710.0 W/m2
14:31 82.8 °F /  28.2 °C 42.3 °F /  5.7 °C 30.15in /  1020.9hPa WSW 0.9mph /  1.4km/h 8.0mph /  12.9km/h 24% 0.00in /  0mm 707.0 W/m2
14:37 83.8 °F /  28.8 °C 43.2 °F /  6.2 °C 30.15in /  1020.9hPa West 2.9mph /  4.7km/h 4.0mph /  6.4km/h 24% 0.00in /  0mm 682.0 W/m2
14:43 84.4 °F /  29.1 °C 42.6 °F /  5.9 °C 30.15in /  1020.9hPa Calm   4.0mph /  6.4km/h 23% 0.00in /  0mm 687.0 W/m2
14:49 84.6 °F /  29.2 °C 41.5 °F /  5.3 °C 30.15in /  1020.9hPa Calm   6.0mph /  9.7km/h 22% 0.00in /  0mm 656.0 W/m2
14:55 84.7 °F /  29.3 °C 40.5 °F /  4.7 °C 30.14in /  1020.5hPa ESE 2.9mph /  4.7km/h 4.0mph /  6.4km/h 21% 0.00in /  0mm 643.0 W/m2
15:01 84.7 °F /  29.3 °C 40.5 °F /  4.7 °C 30.15in /  1020.9hPa Calm   1.0mph /  1.6km/h 21% 0.00in /  0mm 190.0 W/m2
15:08 84.7 °F /  29.3 °C 40.5 °F /  4.7 °C 30.14in /  1020.5hPa NE 0.9mph /  1.4km/h 7.0mph /  11.3km/h 21% 0.00in /  0mm 603.0 W/m2
15:14 84.9 °F /  29.4 °C 41.9 °F /  5.5 °C 30.14in /  1020.5hPa North 0.9mph /  1.4km/h 1.0mph /  1.6km/h 22% 0.00in /  0mm 596.0 W/m2
15:20 85.5 °F /  29.7 °C 43.5 °F /  6.4 °C 30.14in /  1020.5hPa Calm   4.0mph /  6.4km/h 23% 0.00in /  0mm 584.0 W/m2
15:26 86.2 °F /  30.1 °C 42.8 °F /  6 °C 30.14in /  1020.5hPa SW 2.9mph /  4.7km/h 6.0mph /  9.7km/h 22% 0.00in /  0mm 550.0 W/m2
15:32 86.4 °F /  30.2 °C 40.6 °F /  4.8 °C 30.14in /  1020.5hPa SSE 0.9mph /  1.4km/h 2.0mph /  3.2km/h 20% 0.00in /  0mm 510.0 W/m2
15:38 86.4 °F /  30.2 °C 40.6 °F /  4.8 °C 30.14in /  1020.5hPa Calm   3.0mph /  4.8km/h 20% 0.00in /  0mm 483.0 W/m2
15:45 86.4 °F /  30.2 °C 40.6 °F /  4.8 °C 30.14in /  1020.5hPa SE 2.0mph /  3.2km/h 5.0mph /  8km/h 20% 0.00in /  0mm 438.0 W/m2
15:51 86.0 °F /  30 °C 37.6 °F /  3.1 °C 30.14in /  1020.5hPa ESE 6.0mph /  9.7km/h 7.0mph /  11.3km/h 18% 0.00in /  0mm 399.0 W/m2
15:57 85.8 °F /  29.9 °C 38.8 °F /  3.8 °C 30.15in /  1020.9hPa East 4.0mph /  6.4km/h 4.0mph /  6.4km/h 19% 0.00in /  0mm 373.0 W/m2
16:03 85.8 °F /  29.9 °C 40.1 °F /  4.5 °C 30.15in /  1020.9hPa SSE 0.9mph /  1.4km/h 3.0mph /  4.8km/h 20% 0.00in /  0mm 353.0 W/m2
16:09 85.8 °F /  29.9 °C 40.1 °F /  4.5 °C 30.15in /  1020.9hPa SE 2.9mph /  4.7km/h 5.0mph /  8km/h 20% 0.00in /  0mm 330.0 W/m2
16:15 85.6 °F /  29.8 °C 38.7 °F /  3.7 °C 30.15in /  1020.9hPa SE 2.9mph /  4.7km/h 5.0mph /  8km/h 19% 0.00in /  0mm 309.0 W/m2
16:21 85.5 °F /  29.7 °C 39.7 °F /  4.3 °C 30.15in /  1020.9hPa SE 2.0mph /  3.2km/h 4.0mph /  6.4km/h 20% 0.00in /  0mm 287.0 W/m2
16:28 85.5 °F /  29.7 °C 38.5 °F /  3.6 °C 30.15in /  1020.9hPa South 2.0mph /  3.2km/h 5.0mph /  8km/h 19% 0.00in /  0mm 207.0 W/m2
16:34 84.9 °F /  29.4 °C 38.1 °F /  3.4 °C 30.15in /  1020.9hPa SE 2.0mph /  3.2km/h 5.0mph /  8km/h 19% 0.00in /  0mm 141.0 W/m2
16:42 84.4 °F /  29.1 °C 37.6 °F /  3.1 °C 30.15in /  1020.9hPa Calm   5.0mph /  8km/h 19% 0.00in /  0mm 70.0 W/m2
16:48 83.7 °F /  28.7 °C 38.3 °F /  3.5 °C 30.15in /  1020.9hPa SE 0.9mph /  1.4km/h 2.0mph /  3.2km/h 20% 0.00in /  0mm 62.0 W/m2
16:54 83.5 °F /  28.6 °C 38.1 °F /  3.4 °C 30.15in /  1020.9hPa SE 2.9mph /  4.7km/h 4.0mph /  6.4km/h 20% 0.00in /  0mm 88.0 W/m2
17:00 82.9 °F /  28.3 °C 39.0 °F /  3.9 °C 30.16in /  1021.2hPa ESE 2.0mph /  3.2km/h 2.0mph /  3.2km/h 21% 0.00in /  0mm 47.0 W/m2
17:06 82.4 °F /  28 °C 38.5 °F /  3.6 °C 30.16in /  1021.2hPa SE 0.9mph /  1.4km/h 4.0mph /  6.4km/h 21% 0.00in /  0mm 37.0 W/m2
17:12 81.9 °F /  27.7 °C 38.1 °F /  3.4 °C 30.16in /  1021.2hPa ESE 2.0mph /  3.2km/h 4.0mph /  6.4km/h 21% 0.00in /  0mm 32.0 W/m2
17:18 81.3 °F /  27.4 °C 38.8 °F /  3.8 °C 30.16in /  1021.2hPa SE 2.0mph /  3.2km/h 3.0mph /  4.8km/h 22% 0.00in /  0mm 25.0 W/m2
17:24 81.0 °F /  27.2 °C 38.5 °F /  3.6 °C 30.16in /  1021.2hPa Calm   2.0mph /  3.2km/h 22% 0.00in /  0mm 18.0 W/m2
17:30 80.4 °F /  26.9 °C 39.2 °F /  4 °C 30.16in /  1021.2hPa Calm     23% 0.00in /  0mm 12.0 W/m2
17:37 80.1 °F /  26.7 °C 41.0 °F /  5 °C 30.16in /  1021.2hPa Calm     25% 0.00in /  0mm 7.0 W/m2
17:42 79.5 °F /  26.4 °C 40.6 °F /  4.8 °C 30.17in /  1021.6hPa Calm     25% 0.00in /  0mm 0.0 W/m2
17:48 78.8 °F /  26 °C 39.9 °F /  4.4 °C 30.17in /  1021.6hPa Calm     25% 0.00in /  0mm 0.0 W/m2
17:54 78.1 °F /  25.6 °C 39.4 °F /  4.1 °C 30.17in /  1021.6hPa Calm     25% 0.00in /  0mm 0.0 W/m2
18:01 77.4 °F /  25.2 °C 39.7 °F /  4.3 °C 30.17in /  1021.6hPa Calm     26% 0.00in /  0mm 0.0 W/m2
18:07 76.5 °F /  24.7 °C 39.0 °F /  3.9 °C 30.17in /  1021.6hPa Calm   1.0mph /  1.6km/h 26% 0.00in /  0mm 0.0 W/m2
18:13 75.9 °F /  24.4 °C 39.6 °F /  4.2 °C 30.18in /  1021.9hPa Calm   1.0mph /  1.6km/h 27% 0.00in /  0mm 0.0 W/m2
18:19 75.0 °F /  23.9 °C 39.7 °F /  4.3 °C 30.18in /  1021.9hPa Calm   1.0mph /  1.6km/h 28% 0.00in /  0mm 0.0 W/m2
18:25 74.7 °F /  23.7 °C 39.4 °F /  4.1 °C 30.18in /  1021.9hPa Calm     28% 0.00in /  0mm 0.0 W/m2
18:31 73.9 °F /  23.3 °C 39.7 °F /  4.3 °C 30.18in /  1021.9hPa Calm     29% 0.00in /  0mm 0.0 W/m2
18:37 73.6 °F /  23.1 °C 39.4 °F /  4.1 °C 30.18in /  1021.9hPa Calm   1.0mph /  1.6km/h 29% 0.00in /  0mm 0.0 W/m2
18:43 73.0 °F /  22.8 °C 39.7 °F /  4.3 °C 30.18in /  1021.9hPa Calm   1.0mph /  1.6km/h 30% 0.00in /  0mm 0.0 W/m2
18:49 72.7 °F /  22.6 °C 40.3 °F /  4.6 °C 30.18in /  1021.9hPa Calm   1.0mph /  1.6km/h 31% 0.00in /  0mm 0.0 W/m2
18:55 72.1 °F /  22.3 °C 39.9 °F /  4.4 °C 30.18in /  1021.9hPa Calm     31% 0.00in /  0mm 0.0 W/m2
19:02 71.8 °F /  22.1 °C 40.3 °F /  4.6 °C 30.19in /  1022.2hPa Calm   1.0mph /  1.6km/h 32% 0.00in /  0mm 0.0 W/m2
19:08 71.2 °F /  21.8 °C 40.6 °F /  4.8 °C 30.19in /  1022.2hPa Calm     33% 0.00in /  0mm 0.0 W/m2
19:14 71.1 °F /  21.7 °C 39.7 °F /  4.3 °C 30.19in /  1022.2hPa Calm   1.0mph /  1.6km/h 32% 0.00in /  0mm 0.0 W/m2
19:20 70.9 °F /  21.6 °C 39.6 °F /  4.2 °C 30.20in /  1022.6hPa Calm   4.0mph /  6.4km/h 32% 0.00in /  0mm 0.0 W/m2
19:26 70.9 °F /  21.6 °C 39.6 °F /  4.2 °C 30.20in /  1022.6hPa Calm   2.0mph /  3.2km/h 32% 0.00in /  0mm 0.0 W/m2
19:32 70.7 °F /  21.5 °C 40.1 °F /  4.5 °C 30.21in /  1022.9hPa Calm   1.0mph /  1.6km/h 33% 0.00in /  0mm 0.0 W/m2
19:38 70.5 °F /  21.4 °C 40.1 °F /  4.5 °C 30.21in /  1022.9hPa Calm   3.0mph /  4.8km/h 33% 0.00in /  0mm 0.0 W/m2
19:44 70.0 °F /  21.1 °C 40.3 °F /  4.6 °C 30.21in /  1022.9hPa ENE 0.9mph /  1.4km/h 2.0mph /  3.2km/h 34% 0.00in /  0mm 0.0 W/m2
19:50 69.3 °F /  20.7 °C 39.7 °F /  4.3 °C 30.21in /  1022.9hPa Calm   2.0mph /  3.2km/h 34% 0.00in /  0mm 0.0 W/m2
19:59 68.7 °F /  20.4 °C 39.9 °F /  4.4 °C 30.22in /  1023.2hPa Calm   1.0mph /  1.6km/h 35% 0.00in /  0mm 0.0 W/m2
20:05 68.4 °F /  20.2 °C 40.3 °F /  4.6 °C 30.22in /  1023.2hPa Calm   2.0mph /  3.2km/h 36% 0.00in /  0mm 0.0 W/m2
20:11 68.2 °F /  20.1 °C 40.3 °F /  4.6 °C 30.22in /  1023.2hPa Calm   1.0mph /  1.6km/h 36% 0.00in /  0mm 0.0 W/m2
20:17 67.8 °F /  19.9 °C 39.9 °F /  4.4 °C 30.22in /  1023.2hPa Calm   1.0mph /  1.6km/h 36% 0.00in /  0mm 0.0 W/m2
20:23 67.5 °F /  19.7 °C 40.3 °F /  4.6 °C 30.22in /  1023.2hPa Calm     37% 0.00in /  0mm 0.0 W/m2
20:29 67.3 °F /  19.6 °C 40.1 °F /  4.5 °C 30.22in /  1023.2hPa Calm     37% 0.00in /  0mm 0.0 W/m2
20:35 66.9 °F /  19.4 °C 40.5 °F /  4.7 °C 30.22in /  1023.2hPa Calm   1.0mph /  1.6km/h 38% 0.00in /  0mm 0.0 W/m2
20:42 66.6 °F /  19.2 °C 40.1 °F /  4.5 °C 30.22in /  1023.2hPa Calm   1.0mph /  1.6km/h 38% 0.00in /  0mm 0.0 W/m2
20:48 66.2 °F /  19 °C 39.9 °F /  4.4 °C 30.22in /  1023.2hPa Calm     38% 0.00in /  0mm 0.0 W/m2
20:54 66.0 °F /  18.9 °C 39.7 °F /  4.3 °C 30.23in /  1023.6hPa Calm   1.0mph /  1.6km/h 38% 0.00in /  0mm 0.0 W/m2
21:00 65.7 °F /  18.7 °C 39.4 °F /  4.1 °C 30.23in /  1023.6hPa Calm   1.0mph /  1.6km/h 38% 0.00in /  0mm 0.0 W/m2
21:06 65.7 °F /  18.7 °C 39.4 °F /  4.1 °C 30.23in /  1023.6hPa Calm   1.0mph /  1.6km/h 38% 0.00in /  0mm 0.0 W/m2
21:12 65.5 °F /  18.6 °C 39.2 °F /  4 °C 30.23in /  1023.6hPa East 0.9mph /  1.4km/h 2.0mph /  3.2km/h 38% 0.00in /  0mm 0.0 W/m2
21:18 65.3 °F /  18.5 °C 39.0 °F /  3.9 °C 30.23in /  1023.6hPa Calm   1.0mph /  1.6km/h 38% 0.00in /  0mm 0.0 W/m2
21:24 65.1 °F /  18.4 °C 39.6 °F /  4.2 °C 30.23in /  1023.6hPa Calm   1.0mph /  1.6km/h 39% 0.00in /  0mm 0.0 W/m2
21:30 64.9 °F /  18.3 °C 39.4 °F /  4.1 °C 30.23in /  1023.6hPa Calm   1.0mph /  1.6km/h 39% 0.00in /  0mm 0.0 W/m2
21:37 64.8 °F /  18.2 °C 39.2 °F /  4 °C 30.23in /  1023.6hPa Calm     39% 0.00in /  0mm 0.0 W/m2
21:43 64.4 °F /  18 °C 39.6 °F /  4.2 °C 30.23in /  1023.6hPa Calm     40% 0.00in /  0mm 0.0 W/m2
21:49 64.0 °F /  17.8 °C 39.2 °F /  4 °C 30.23in /  1023.6hPa Calm     40% 0.00in /  0mm 0.0 W/m2
21:55 63.9 °F /  17.7 °C 39.0 °F /  3.9 °C 30.23in /  1023.6hPa Calm     40% 0.00in /  0mm 0.0 W/m2
22:01 63.7 °F /  17.6 °C 39.6 °F /  4.2 °C 30.24in /  1023.9hPa Calm     41% 0.00in /  0mm 0.0 W/m2
22:07 63.3 °F /  17.4 °C 39.2 °F /  4 °C 30.23in /  1023.6hPa Calm     41% 0.00in /  0mm 0.0 W/m2
22:13 63.0 °F /  17.2 °C 39.6 °F /  4.2 °C 30.24in /  1023.9hPa Calm     42% 0.00in /  0mm 0.0 W/m2
22:19 62.8 °F /  17.1 °C 39.9 °F /  4.4 °C 30.24in /  1023.9hPa Calm     43% 0.00in /  0mm 0.0 W/m2
22:25 62.4 °F /  16.9 °C 39.6 °F /  4.2 °C 30.23in /  1023.6hPa Calm     43% 0.00in /  0mm 0.0 W/m2
22:31 62.1 °F /  16.7 °C 39.4 °F /  4.1 °C 30.24in /  1023.9hPa Calm     43% 0.00in /  0mm 0.0 W/m2
22:37 61.9 °F /  16.6 °C 39.7 °F /  4.3 °C 30.24in /  1023.9hPa Calm     44% 0.00in /  0mm 0.0 W/m2
22:43 61.5 °F /  16.4 °C 39.4 °F /  4.1 °C 30.24in /  1023.9hPa Calm     44% 0.00in /  0mm 0.0 W/m2
22:49 61.3 °F /  16.3 °C 39.2 °F /  4 °C 30.23in /  1023.6hPa Calm   1.0mph /  1.6km/h 44% 0.00in /  0mm 0.0 W/m2
22:56 61.2 °F /  16.2 °C 39.0 °F /  3.9 °C 30.23in /  1023.6hPa Calm   1.0mph /  1.6km/h 44% 0.00in /  0mm 0.0 W/m2
23:02 61.0 °F /  16.1 °C 38.8 °F /  3.8 °C 30.23in /  1023.6hPa Calm     44% 0.00in /  0mm 0.0 W/m2
23:08 61.0 °F /  16.1 °C 38.8 °F /  3.8 °C 30.23in /  1023.6hPa Calm     44% 0.00in /  0mm 0.0 W/m2
23:14 60.8 °F /  16 °C 39.4 °F /  4.1 °C 30.24in /  1023.9hPa Calm   2.0mph /  3.2km/h 45% 0.00in /  0mm 0.0 W/m2
23:20 60.6 °F /  15.9 °C 38.7 °F /  3.7 °C 30.24in /  1023.9hPa Calm   2.0mph /  3.2km/h 44% 0.00in /  0mm 0.0 W/m2
23:26 60.6 °F /  15.9 °C 38.7 °F /  3.7 °C 30.24in /  1023.9hPa Calm     44% 0.00in /  0mm 0.0 W/m2
23:32 60.6 °F /  15.9 °C 39.2 °F /  4 °C 30.24in /  1023.9hPa Calm     45% 0.00in /  0mm 0.0 W/m2
23:38 60.4 °F /  15.8 °C 39.0 °F /  3.9 °C 30.24in /  1023.9hPa SSE 0.9mph /  1.4km/h 2.0mph /  3.2km/h 45% 0.00in /  0mm 0.0 W/m2
23:44 60.3 °F /  15.7 °C 38.8 °F /  3.8 °C 30.24in /  1023.9hPa Calm   1.0mph /  1.6km/h 45% 0.00in /  0mm 0.0 W/m2
23:51 60.3 °F /  15.7 °C 38.8 °F /  3.8 °C 30.24in /  1023.9hPa Calm   2.0mph /  3.2km/h 45% 0.00in /  0mm 0.0 W/m2
23:57 60.1 °F /  15.6 °C 39.2 °F /  4 °C 30.24in /  1023.9hPa Calm     46% 0.00in /  0mm 0.0 W/m2
Olympia, Windhoek, Namibia
Compliments of Weather Underground - 3 mb